Time;durP1;ratioP1;P1;durP2;ratioP2;P2;SDS_P1;SDS_P2;PMS_P1;PMS_P2;Temp;Humidity;BMP_temperature;BMP_pressure;BME280_temperature;BME280_humidity;BME280_pressure;Samples;Min_cycle;Max_cycle;Signal;HPM_P1;HPM_P2
2023/07/21 00:01:09;;;;;;;5.20;3.20;;;;;;;;;;5082799;27;20043;-75
2023/07/21 00:03:36;;;;;;;5.38;3.20;;;;;;;;;;5079313;27;21788;-76
2023/07/21 00:06:06;;;;;;;4.57;3.53;;;;;;;;;;5070812;28;21099;-75
2023/07/21 00:08:33;;;;;;;5.43;3.90;;;;;;;;;;5083694;28;20079;-75
2023/07/21 00:10:59;;;;;;;7.22;4.30;;;;;;;;;;5083595;28;20055;-75
2023/07/21 00:13:26;;;;;;;6.20;3.50;;;;;;;;;;5085431;27;20047;-76
2023/07/21 00:15:52;;;;;;;6.60;3.70;;;;;;;;;;5080087;28;20071;-76
2023/07/21 00:18:19;;;;;;;5.60;4.13;;;;;;;;;;5071235;28;20450;-75
2023/07/21 00:20:46;;;;;;;7.55;3.83;;;;;;;;;;5085567;28;20055;-76
2023/07/21 00:23:12;;;;;;;4.63;3.42;;;;;;;;;;5083442;28;20895;-75
2023/07/21 00:25:42;;;;;;;6.30;3.95;;;;;;;;;;5067262;28;20043;-75
2023/07/21 00:28:08;;;;;;;5.00;3.97;;;;;;;;;;5079957;28;21090;-76
2023/07/21 00:30:37;;;;;;;5.38;3.63;;;;;;;;;;5080111;28;20039;-76
2023/07/21 00:33:04;;;;;;;5.30;3.78;;;;;;;;;;5078959;28;20066;-75
2023/07/21 00:35:31;;;;;;;8.70;3.80;;;;;;;;;;5085400;28;20083;-75
2023/07/21 00:38:01;;;;;;;6.30;3.92;;;;;;;;;;5082858;27;20043;-75
2023/07/21 00:40:27;;;;;;;4.78;3.50;;;;;;;;;;5102391;27;20048;-75
2023/07/21 00:42:54;;;;;;;9.52;3.55;;;;;;;;;;5084571;28;20039;-75
2023/07/21 00:45:20;;;;;;;4.13;3.60;;;;;;;;;;5087300;27;20123;-76
2023/07/21 00:47:47;;;;;;;6.15;4.40;;;;;;;;;;5085622;28;20492;-75
2023/07/21 00:50:15;;;;;;;7.38;3.58;;;;;;;;;;5086533;28;20055;-75
2023/07/21 00:52:41;;;;;;;5.78;4.05;;;;;;;;;;5082250;28;20787;-76
2023/07/21 00:55:07;;;;;;;5.95;3.65;;;;;;;;;;5102155;27;20150;-76
2023/07/21 00:57:35;;;;;;;6.22;3.45;;;;;;;;;;5099777;27;20057;-75
2023/07/21 01:00:04;;;;;;;9.40;4.05;;;;;;;;;;5084395;27;20174;-75
2023/07/21 01:02:30;;;;;;;6.03;3.63;;;;;;;;;;5086421;27;20050;-75
2023/07/21 01:05:01;;;;;;;7.25;3.47;;;;;;;;;;5069552;27;20046;-75
2023/07/21 01:07:27;;;;;;;6.90;3.88;;;;;;;;;;5105896;27;20049;-75
2023/07/21 01:09:53;;;;;;;6.88;3.67;;;;;;;;;;5104814;27;20120;-75
2023/07/21 01:12:20;;;;;;;6.03;4.18;;;;;;;;;;5086356;27;20043;-75
2023/07/21 01:14:46;;;;;;;5.00;3.63;;;;;;;;;;5104144;27;23792;-75
2023/07/21 01:17:14;;;;;;;5.80;3.88;;;;;;;;;;5087164;27;20039;-75
2023/07/21 01:19:41;;;;;;;5.72;3.70;;;;;;;;;;5105950;27;20050;-75
2023/07/21 01:22:12;;;;;;;6.10;4.53;;;;;;;;;;5104281;27;20054;-75
2023/07/21 01:24:49;;;;;;;10.43;5.88;;;;;;;;;;5084766;27;20202;-75
2023/07/21 01:27:16;;;;;;;7.00;5.55;;;;;;;;;;5101585;27;20046;-75
2023/07/21 01:29:44;;;;;;;11.27;5.53;;;;;;;;;;5079699;27;20087;-75
2023/07/21 01:32:12;;;;;;;9.65;5.97;;;;;;;;;;5083489;27;20051;-75
2023/07/21 01:34:38;;;;;;;6.55;5.65;;;;;;;;;;5100466;27;20049;-75
2023/07/21 01:37:07;;;;;;;7.45;5.75;;;;;;;;;;5081686;27;20124;-75
2023/07/21 01:39:35;;;;;;;6.72;4.90;;;;;;;;;;5082597;27;20087;-75
2023/07/21 01:42:01;;;;;;;6.28;5.53;;;;;;;;;;5098686;27;20051;-75
2023/07/21 01:44:27;;;;;;;8.55;5.32;;;;;;;;;;5082685;27;20043;-75
2023/07/21 01:46:54;;;;;;;8.68;5.43;;;;;;;;;;5102666;27;20039;-75
2023/07/21 01:49:20;;;;;;;14.50;5.90;;;;;;;;;;5066430;27;20078;-75
2023/07/21 01:51:47;;;;;;;8.57;4.95;;;;;;;;;;5082829;27;20043;-75
2023/07/21 01:54:26;;;;;;;15.48;5.88;;;;;;;;;;5084645;27;20059;-75
2023/07/21 01:56:56;;;;;;;10.38;6.63;;;;;;;;;;5101086;27;20058;-75
2023/07/21 01:59:22;;;;;;;7.80;5.75;;;;;;;;;;5084356;27;20057;-75
2023/07/21 02:01:53;;;;;;;10.40;5.72;;;;;;;;;;5083682;27;20043;-75
2023/07/21 02:04:20;;;;;;;8.73;6.07;;;;;;;;;;5080511;28;20027;-75
2023/07/21 02:06:47;;;;;;;8.48;5.85;;;;;;;;;;5069045;28;20062;-75
2023/07/21 02:09:13;;;;;;;7.10;5.97;;;;;;;;;;5085470;28;20047;-75
2023/07/21 02:11:40;;;;;;;9.02;6.03;;;;;;;;;;5085103;27;20043;-75
2023/07/21 02:14:07;;;;;;;10.88;5.90;;;;;;;;;;5085053;28;20494;-75
2023/07/21 02:16:33;;;;;;;8.93;5.63;;;;;;;;;;5105406;27;20050;-75
2023/07/21 02:19:00;;;;;;;7.95;6.28;;;;;;;;;;5086158;28;20122;-75
2023/07/21 02:21:26;;;;;;;9.00;6.22;;;;;;;;;;5068065;28;21038;-75
2023/07/21 02:23:52;;;;;;;7.53;5.90;;;;;;;;;;5104234;27;20118;-75
2023/07/21 02:26:19;;;;;;;7.00;6.00;;;;;;;;;;5105628;27;20039;-75
2023/07/21 02:28:45;;;;;;;7.25;5.95;;;;;;;;;;5089735;27;20047;-75
2023/07/21 02:31:11;;;;;;;6.65;5.47;;;;;;;;;;5074928;27;20050;-75
2023/07/21 02:33:37;;;;;;;7.78;5.97;;;;;;;;;;5107886;27;20057;-75
2023/07/21 02:36:04;;;;;;;13.98;6.25;;;;;;;;;;5091096;27;20051;-75
2023/07/21 02:38:30;;;;;;;8.98;6.03;;;;;;;;;;5089513;27;20054;-75
2023/07/21 02:41:02;;;;;;;7.45;5.65;;;;;;;;;;5107747;27;20080;-75
2023/07/21 02:43:29;;;;;;;7.03;5.40;;;;;;;;;;5104420;27;20043;-75
2023/07/21 02:45:56;;;;;;;8.35;6.00;;;;;;;;;;5088674;27;20046;-75
2023/07/21 02:48:22;;;;;;;11.15;5.88;;;;;;;;;;5106517;27;20508;-75
2023/07/21 02:50:49;;;;;;;11.75;6.30;;;;;;;;;;5108010;27;20069;-75
2023/07/21 02:53:20;;;;;;;10.05;6.18;;;;;;;;;;5088701;27;20040;-75
2023/07/21 02:55:47;;;;;;;12.05;5.90;;;;;;;;;;5105478;27;20089;-75
2023/07/21 02:58:13;;;;;;;8.95;5.35;;;;;;;;;;5107494;27;20395;-75
2023/07/21 03:00:40;;;;;;;16.55;6.35;;;;;;;;;;5086809;27;20039;-75
2023/07/21 03:03:06;;;;;;;18.15;6.28;;;;;;;;;;5108067;27;20050;-75
2023/07/21 03:05:33;;;;;;;12.55;6.25;;;;;;;;;;5087868;27;20046;-75
2023/07/21 03:07:59;;;;;;;16.23;6.00;;;;;;;;;;5105808;27;20114;-75
2023/07/21 03:10:26;;;;;;;16.35;6.13;;;;;;;;;;5107339;27;20047;-75
2023/07/21 03:12:52;;;;;;;11.73;6.43;;;;;;;;;;5088141;27;20136;-75
2023/07/21 03:15:18;;;;;;;12.10;6.03;;;;;;;;;;5087128;27;20050;-75
2023/07/21 03:17:44;;;;;;;12.07;6.05;;;;;;;;;;5106720;27;20054;-75
2023/07/21 03:20:12;;;;;;;8.90;5.90;;;;;;;;;;5087075;27;20043;-75
2023/07/21 03:22:45;;;;;;;9.50;6.90;;;;;;;;;;5088367;27;20046;-75
2023/07/21 03:25:13;;;;;;;11.40;6.00;;;;;;;;;;5106356;27;20051;-75
2023/07/21 03:27:39;;;;;;;7.13;5.57;;;;;;;;;;5083382;27;20796;-75
2023/07/21 03:30:06;;;;;;;9.48;4.70;;;;;;;;;;5105260;27;20046;-75
2023/07/21 03:32:32;;;;;;;6.65;4.30;;;;;;;;;;5087237;27;20043;-75
2023/07/21 03:35:01;;;;;;;5.10;3.83;;;;;;;;;;5086615;27;20043;-75
2023/07/21 03:37:27;;;;;;;6.60;4.28;;;;;;;;;;5107749;27;20411;-75
2023/07/21 03:39:53;;;;;;;5.57;3.95;;;;;;;;;;5088713;27;20121;-75
2023/07/21 03:42:19;;;;;;;6.43;4.88;;;;;;;;;;5071425;27;20055;-74
2023/07/21 03:44:49;;;;;;;8.27;4.95;;;;;;;;;;5072135;27;20604;-75
2023/07/21 03:47:19;;;;;;;8.02;4.95;;;;;;;;;;5087449;27;20061;-74
2023/07/21 03:49:46;;;;;;;6.75;5.00;;;;;;;;;;5085148;27;20066;-75
2023/07/21 03:52:12;;;;;;;11.00;5.80;;;;;;;;;;5085831;27;20095;-75
2023/07/21 03:54:38;;;;;;;13.32;5.38;;;;;;;;;;5104794;27;20103;-75
2023/07/21 03:57:05;;;;;;;14.43;6.63;;;;;;;;;;5104472;27;20031;-75
2023/07/21 03:59:31;;;;;;;8.68;6.15;;;;;;;;;;5084824;27;20070;-75
2023/07/21 04:01:57;;;;;;;8.82;7.03;;;;;;;;;;5102218;27;20132;-75
2023/07/21 04:04:24;;;;;;;9.32;7.15;;;;;;;;;;5088854;27;20030;-75
2023/07/21 04:06:50;;;;;;;13.48;6.32;;;;;;;;;;5103492;27;20035;-75
2023/07/21 04:09:16;;;;;;;11.90;7.35;;;;;;;;;;5087934;27;20160;-74
2023/07/21 04:11:42;;;;;;;16.75;7.50;;;;;;;;;;5106234;27;20048;-75
2023/07/21 04:14:09;;;;;;;10.55;6.45;;;;;;;;;;5081343;27;20062;-75
2023/07/21 04:16:35;;;;;;;14.98;7.45;;;;;;;;;;5089346;27;20043;-75
2023/07/21 04:19:01;;;;;;;15.15;6.38;;;;;;;;;;5088385;27;20086;-74
2023/07/21 04:21:27;;;;;;;14.07;7.00;;;;;;;;;;5106716;27;20602;-75
2023/07/21 04:23:53;;;;;;;9.60;6.93;;;;;;;;;;5086396;27;20042;-75
2023/07/21 04:26:19;;;;;;;21.05;6.85;;;;;;;;;;5071302;27;20760;-75
2023/07/21 04:28:45;;;;;;;9.80;7.28;;;;;;;;;;5086189;27;20557;-75
2023/07/21 04:31:11;;;;;;;15.88;7.03;;;;;;;;;;5063369;27;20039;-75
2023/07/21 04:33:38;;;;;;;12.23;6.35;;;;;;;;;;5105717;27;20146;-75
2023/07/21 04:36:04;;;;;;;8.85;6.57;;;;;;;;;;5086336;27;20083;-76
2023/07/21 04:38:31;;;;;;;9.35;6.30;;;;;;;;;;5105855;27;20553;-74
2023/07/21 04:40:57;;;;;;;12.90;7.10;;;;;;;;;;5070059;27;20070;-75
2023/07/21 04:43:23;;;;;;;9.70;6.85;;;;;;;;;;5103517;27;20402;-75
2023/07/21 04:45:49;;;;;;;15.80;6.20;;;;;;;;;;5106046;27;20722;-75
2023/07/21 04:48:16;;;;;;;10.52;6.07;;;;;;;;;;5104314;27;20122;-74
2023/07/21 04:50:42;;;;;;;14.38;6.05;;;;;;;;;;5097744;27;20043;-75
2023/07/21 04:53:12;;;;;;;10.63;6.03;;;;;;;;;;5085435;27;20608;-75
2023/07/21 04:55:39;;;;;;;7.40;5.97;;;;;;;;;;5084401;27;20055;-75
2023/07/21 04:58:05;;;;;;;9.10;5.82;;;;;;;;;;5105103;27;20440;-75
2023/07/21 05:00:32;;;;;;;6.78;6.07;;;;;;;;;;5101929;27;21191;-75
2023/07/21 05:02:59;;;;;;;10.45;5.90;;;;;;;;;;5083840;27;20039;-75
2023/07/21 05:05:27;;;;;;;9.63;5.78;;;;;;;;;;5088529;27;20145;-75
2023/07/21 05:07:53;;;;;;;7.97;6.13;;;;;;;;;;5104443;27;20039;-75
2023/07/21 05:10:19;;;;;;;9.55;5.88;;;;;;;;;;5088728;27;20043;-75
2023/07/21 05:12:45;;;;;;;17.17;6.25;;;;;;;;;;5084441;27;20073;-75
2023/07/21 05:15:13;;;;;;;9.05;5.80;;;;;;;;;;5086557;27;20622;-74
2023/07/21 05:17:40;;;;;;;17.17;6.03;;;;;;;;;;5105551;27;20095;-75
2023/07/21 05:20:11;;;;;;;11.57;5.63;;;;;;;;;;5086758;27;20502;-74
2023/07/21 05:22:38;;;;;;;9.15;6.07;;;;;;;;;;5104523;27;20032;-75
2023/07/21 05:25:05;;;;;;;12.68;6.45;;;;;;;;;;5087504;27;20046;-75
2023/07/21 05:27:31;;;;;;;12.40;5.95;;;;;;;;;;5083742;27;20126;-74
2023/07/21 05:30:00;;;;;;;11.50;5.95;;;;;;;;;;5090035;27;20038;-75
2023/07/21 05:32:26;;;;;;;11.65;6.38;;;;;;;;;;5107217;27;20131;-75
2023/07/21 05:34:52;;;;;;;8.50;5.55;;;;;;;;;;5104608;27;20054;-75
2023/07/21 05:37:19;;;;;;;9.70;5.88;;;;;;;;;;5086443;27;20043;-75
2023/07/21 05:39:45;;;;;;;17.67;6.18;;;;;;;;;;5104375;27;20040;-74
2023/07/21 05:42:11;;;;;;;8.73;5.68;;;;;;;;;;5087161;28;20138;-75
2023/07/21 05:44:37;;;;;;;8.45;5.43;;;;;;;;;;5106613;27;20039;-75
2023/07/21 05:47:04;;;;;;;8.82;4.90;;;;;;;;;;5089609;28;20047;-74
2023/07/21 05:49:30;;;;;;;7.63;5.60;;;;;;;;;;5104961;27;20039;-74
2023/07/21 05:51:56;;;;;;;9.50;5.88;;;;;;;;;;5086301;27;20043;-74
2023/07/21 05:54:22;;;;;;;8.00;5.30;;;;;;;;;;5105629;27;20164;-75
2023/07/21 05:56:48;;;;;;;7.68;5.30;;;;;;;;;;5105546;27;20035;-74
2023/07/21 05:59:14;;;;;;;7.93;5.25;;;;;;;;;;5103500;27;20403;-74
2023/07/21 06:01:41;;;;;;;16.80;6.45;;;;;;;;;;5102413;27;20053;-74
2023/07/21 06:04:07;;;;;;;7.18;5.65;;;;;;;;;;5102917;27;20112;-74
2023/07/21 06:06:33;;;;;;;9.15;5.03;;;;;;;;;;5103755;27;20051;-74
2023/07/21 06:08:59;;;;;;;8.32;5.53;;;;;;;;;;5103436;27;20043;-74
2023/07/21 06:11:26;;;;;;;9.48;5.63;;;;;;;;;;5087090;28;20051;-75
2023/07/21 06:13:53;;;;;;;9.57;5.68;;;;;;;;;;5102357;27;20503;-74
2023/07/21 06:16:22;;;;;;;19.90;5.75;;;;;;;;;;5105067;27;20091;-75
2023/07/21 06:18:49;;;;;;;7.95;5.18;;;;;;;;;;5085054;28;20043;-75
2023/07/21 06:21:15;;;;;;;6.55;5.07;;;;;;;;;;5075438;28;20130;-75
2023/07/21 06:23:41;;;;;;;9.73;4.82;;;;;;;;;;5105258;27;20122;-75
2023/07/21 06:26:07;;;;;;;12.70;5.50;;;;;;;;;;5085600;28;20913;-75
2023/07/21 06:28:34;;;;;;;16.00;5.35;;;;;;;;;;5105958;27;20074;-75
2023/07/21 06:31:00;;;;;;;10.23;5.03;;;;;;;;;;5103305;27;20050;-75
2023/07/21 06:33:26;;;;;;;11.23;5.63;;;;;;;;;;5107163;27;20043;-75
2023/07/21 06:35:54;;;;;;;7.00;5.43;;;;;;;;;;5103799;27;20077;-75
2023/07/21 06:38:20;;;;;;;9.45;5.70;;;;;;;;;;5080129;28;20463;-75
2023/07/21 06:40:46;;;;;;;11.00;5.53;;;;;;;;;;5086628;28;20111;-75
2023/07/21 06:43:13;;;;;;;12.55;6.25;;;;;;;;;;5067639;28;22008;-76
2023/07/21 06:45:40;;;;;;;12.80;5.72;;;;;;;;;;5105071;27;20058;-75
2023/07/21 06:48:06;;;;;;;7.10;4.90;;;;;;;;;;5087698;28;20043;-76
2023/07/21 06:50:33;;;;;;;7.18;4.97;;;;;;;;;;5105940;27;20100;-75
2023/07/21 06:52:59;;;;;;;10.25;4.47;;;;;;;;;;5107498;27;20531;-75
2023/07/21 06:55:25;;;;;;;8.10;4.60;;;;;;;;;;5107065;27;21812;-75
2023/07/21 06:57:51;;;;;;;4.40;3.38;;;;;;;;;;5104408;27;20532;-76
2023/07/21 07:00:18;;;;;;;5.68;4.30;;;;;;;;;;5102909;28;20047;-75
2023/07/21 07:02:49;;;;;;;11.75;4.68;;;;;;;;;;5116577;27;20058;-75
2023/07/21 07:05:16;;;;;;;4.95;4.00;;;;;;;;;;5104144;27;20071;-74
2023/07/21 07:07:42;;;;;;;6.22;3.10;;;;;;;;;;5086341;28;21058;-74
2023/07/21 07:10:08;;;;;;;6.07;3.72;;;;;;;;;;5104285;27;20050;-74
2023/07/21 07:12:35;;;;;;;4.50;3.30;;;;;;;;;;5074815;27;20394;-75
2023/07/21 07:15:01;;;;;;;2.45;2.25;;;;;;;;;;5106098;27;20134;-74
2023/07/21 07:17:27;;;;;;;5.85;2.70;;;;;;;;;;5106720;27;20092;-74
2023/07/21 07:19:53;;;;;;;2.42;2.22;;;;;;;;;;5108725;27;20499;-74
2023/07/21 07:22:19;;;;;;;3.17;2.25;;;;;;;;;;5086569;27;20111;-74
2023/07/21 07:24:45;;;;;;;2.65;1.63;;;;;;;;;;5091086;27;20046;-74
2023/07/21 07:27:11;;;;;;;7.82;2.35;;;;;;;;;;5107906;27;20683;-74
2023/07/21 07:29:37;;;;;;;5.18;3.00;;;;;;;;;;5090276;27;20078;-74
2023/07/21 07:32:04;;;;;;;3.83;2.88;;;;;;;;;;5073644;27;20043;-74
2023/07/21 07:34:30;;;;;;;5.00;2.78;;;;;;;;;;5108961;27;20043;-74
2023/07/21 07:36:58;;;;;;;5.70;3.30;;;;;;;;;;5089413;27;20043;-74
2023/07/21 07:39:24;;;;;;;2.83;2.42;;;;;;;;;;5090967;27;20510;-74
2023/07/21 07:41:51;;;;;;;2.53;2.33;;;;;;;;;;5088795;27;20047;-74
2023/07/21 07:44:18;;;;;;;4.22;2.55;;;;;;;;;;5089677;27;20071;-75
2023/07/21 07:46:44;;;;;;;3.80;2.38;;;;;;;;;;5087781;27;20049;-75
2023/07/21 07:49:10;;;;;;;3.80;1.50;;;;;;;;;;5105254;27;20043;-75
2023/07/21 07:51:40;;;;;;;2.47;1.50;;;;;;;;;;5088348;27;20051;-76
2023/07/21 07:54:07;;;;;;;2.67;1.27;;;;;;;;;;5106114;27;20079;-75
2023/07/21 07:56:34;;;;;;;4.28;1.35;;;;;;;;;;5089126;27;20043;-75
2023/07/21 07:59:00;;;;;;;2.83;1.20;;;;;;;;;;5087301;27;20039;-74
2023/07/21 08:01:26;;;;;;;2.45;1.50;;;;;;;;;;5108000;27;20047;-75
2023/07/21 08:03:53;;;;;;;2.03;1.83;;;;;;;;;;5107675;27;20392;-72
2023/07/21 08:06:22;;;;;;;4.78;1.98;;;;;;;;;;5105883;27;20513;-73
2023/07/21 08:08:48;;;;;;;2.17;1.98;;;;;;;;;;5106604;27;20114;-72
2023/07/21 08:11:15;;;;;;;1.92;1.75;;;;;;;;;;5106462;27;20127;-73
2023/07/21 08:13:41;;;;;;;3.58;2.03;;;;;;;;;;5105701;27;20043;-73
2023/07/21 08:16:12;;;;;;;3.33;2.08;;;;;;;;;;5108956;27;20050;-73
2023/07/21 08:18:38;;;;;;;3.58;1.98;;;;;;;;;;5105753;27;20492;-73
2023/07/21 08:21:23;;;;;;;3.78;2.47;;;;;;;;;;5085388;27;20071;-73
2023/07/21 08:23:50;;;;;;;6.45;2.10;;;;;;;;;;5106678;27;20473;-73
2023/07/21 08:26:16;;;;;;;6.45;1.80;;;;;;;;;;5107314;27;20436;-73
2023/07/21 08:28:42;;;;;;;2.00;1.80;;;;;;;;;;5106764;27;20043;-73
2023/07/21 08:31:11;;;;;;;7.45;2.20;;;;;;;;;;5106620;27;20636;-73
2023/07/21 08:33:38;;;;;;;3.80;1.90;;;;;;;;;;5104639;27;20138;-73
2023/07/21 08:36:05;;;;;;;3.53;2.38;;;;;;;;;;5086118;27;20047;-73
2023/07/21 08:38:33;;;;;;;2.08;1.80;;;;;;;;;;5104184;27;20093;-73
2023/07/21 08:41:03;;;;;;;4.90;2.15;;;;;;;;;;5080098;27;20118;-74
2023/07/21 08:43:30;;;;;;;2.40;1.85;;;;;;;;;;5108239;27;20077;-75
2023/07/21 08:45:59;;;;;;;2.95;1.75;;;;;;;;;;5106372;27;21605;-74
2023/07/21 08:48:25;;;;;;;2.25;2.00;;;;;;;;;;5107948;27;20166;-75
2023/07/21 08:50:54;;;;;;;2.30;1.85;;;;;;;;;;5087169;27;20530;-74
2023/07/21 08:53:22;;;;;;;1.60;1.50;;;;;;;;;;5089064;27;20211;-75
2023/07/21 08:55:48;;;;;;;4.10;1.70;;;;;;;;;;5109784;27;20092;-75
2023/07/21 08:58:15;;;;;;;3.22;1.88;;;;;;;;;;5089490;27;20157;-80
2023/07/21 09:00:41;;;;;;;2.38;1.48;;;;;;;;;;5108743;27;20775;-79
2023/07/21 09:03:07;;;;;;;3.38;1.45;;;;;;;;;;5106460;27;20050;-79
2023/07/21 09:05:33;;;;;;;2.20;1.50;;;;;;;;;;5090034;27;20039;-79
2023/07/21 09:07:59;;;;;;;4.80;2.30;;;;;;;;;;5105383;27;20043;-78
2023/07/21 09:10:31;;;;;;;4.88;2.25;;;;;;;;;;5106129;27;20785;-78
2023/07/21 09:12:57;;;;;;;2.15;1.95;;;;;;;;;;5087314;27;20067;-76
2023/07/21 09:15:23;;;;;;;3.63;1.95;;;;;;;;;;5084345;27;20046;-77
2023/07/21 09:17:49;;;;;;;2.55;1.90;;;;;;;;;;5090411;27;20498;-77
2023/07/21 09:20:17;;;;;;;2.33;1.88;;;;;;;;;;5085365;27;20050;-77
2023/07/21 09:22:47;;;;;;;2.22;1.98;;;;;;;;;;5084482;27;20044;-76
2023/07/21 09:25:19;;;;;;;3.90;1.67;;;;;;;;;;5104734;27;20399;-77
2023/07/21 09:27:52;;;;;;;2.05;1.40;;;;;;;;;;5102559;27;20108;-77
2023/07/21 09:30:18;;;;;;;;;;;;;;;;;;5100864;27;20035;-76
2023/07/21 09:32:44;;;;;;;3.22;1.85;;;;;;;;;;5084696;28;21038;-76
2023/07/21 09:35:10;;;;;;;3.33;1.67;;;;;;;;;;5084293;27;20058;-77
2023/07/21 09:37:38;;;;;;;2.10;1.90;;;;;;;;;;5100190;27;20082;-76
2023/07/21 09:40:06;;;;;;;2.88;1.80;;;;;;;;;;5083771;27;20053;-77
2023/07/21 09:42:32;;;;;;;5.32;1.88;;;;;;;;;;5103628;27;21645;-77
2023/07/21 09:44:58;;;;;;;3.17;1.80;;;;;;;;;;5104061;27;20517;-77
2023/07/21 09:47:26;;;;;;;2.50;1.58;;;;;;;;;;5084839;27;20046;-78
2023/07/21 09:49:57;;;;;;;2.05;1.55;;;;;;;;;;5080364;27;20586;-78
2023/07/21 09:52:23;;;;;;;3.00;1.55;;;;;;;;;;5101227;27;20114;-78
2023/07/21 09:54:56;;;;;;;1.55;1.38;;;;;;;;;;5061340;28;20108;-77
2023/07/21 09:57:23;;;;;;;1.33;1.23;;;;;;;;;;5084538;27;20566;-77
2023/07/21 09:59:50;;;;;;;2.88;1.70;;;;;;;;;;5105626;27;20445;-77
2023/07/21 10:02:17;;;;;;;1.98;1.20;;;;;;;;;;5102550;27;20648;-77
2023/07/21 10:04:43;;;;;;;2.45;1.30;;;;;;;;;;5103681;27;20042;-77
2023/07/21 10:07:11;;;;;;;2.08;1.33;;;;;;;;;;5085105;28;20860;-77
2023/07/21 10:09:38;;;;;;;19.98;3.17;;;;;;;;;;5071135;28;20667;-77
2023/07/21 10:12:11;;;;;;;1.30;1.20;;;;;;;;;;5103516;27;20543;-77
2023/07/21 10:14:40;;;;;;;3.03;1.00;;;;;;;;;;5087546;28;20182;-77
2023/07/21 10:17:07;;;;;;;1.67;1.55;;;;;;;;;;5109075;27;20499;-78
2023/07/21 10:19:44;;;;;;;2.63;1.45;;;22.20;99.90;;;;;;5090826;28;20291;-77
2023/07/21 10:22:24;;;;;;;2.10;1.38;;;;;;;;;;5090796;28;20039;-77
2023/07/21 10:24:54;;;;;;;2.00;1.48;;;;;;;;;;5091496;28;20375;-77
2023/07/21 10:27:21;;;;;;;2.38;1.40;;;;;;;;;;5090746;27;20039;-77
2023/07/21 10:30:07;;;;;;;2.33;1.48;;;;;;;;;;5091573;27;20050;-78
2023/07/21 10:32:41;;;;;;;9.82;2.03;;;;;;;;;;5087828;28;20130;-77
2023/07/21 10:35:27;;;;;;;6.13;2.03;;;;;;;;;;5091754;28;20095;-78
2023/07/21 10:38:12;;;;;;;2.20;1.40;;;;;;;;;;5071995;28;20116;-77
2023/07/21 10:40:38;;;;;;;1.70;1.35;;;;;;;;;;5109077;27;20062;-77
2023/07/21 10:43:04;;;;;;;1.75;1.30;;;;;;;;;;5090008;27;20047;-74
2023/07/21 10:45:30;;;;;;;2.47;1.50;;;;;;;;;;5123096;27;20087;-75
2023/07/21 10:47:56;;;;;;;4.75;1.40;;;;;;;;;;5118288;27;20406;-75
2023/07/21 10:50:23;;;;;;;3.70;1.80;;;;;;;;;;5080411;27;20122;-75
2023/07/21 10:52:53;;;;;;;2.92;1.77;;;;;;;;;;5113731;27;20088;-76
2023/07/21 10:55:19;;;;;;;2.78;1.40;;;;;;;;;;5080745;27;20807;-76
2023/07/21 10:57:46;;;;;;;2.22;1.27;;;;;;;;;;5093956;27;20088;-76
2023/07/21 11:00:12;;;;;;;3.85;1.25;;;;;;;;;;5093702;27;20031;-76
2023/07/21 11:02:38;;;;;;;1.95;1.42;;;;;;;;;;5114078;27;20047;-76
2023/07/21 11:05:05;;;;;;;2.90;1.73;;;;;;;;;;5093518;27;20054;-76
2023/07/21 11:07:31;;;;;;;1.85;1.20;;;;;;;;;;5096496;27;20753;-76
2023/07/21 11:10:00;;;;;;;2.83;1.55;;;;;;;;;;5095968;27;20165;-75
2023/07/21 11:12:26;;;;;;;5.15;1.83;;;;;;;;;;5092346;27;20083;-73
2023/07/21 11:14:55;;;;;;;3.95;1.80;;;;;;;;;;5082109;27;20051;-73
2023/07/21 11:17:21;;;;;;;3.03;2.08;;;;;;;;;;5097200;27;20046;-73
2023/07/21 11:19:47;;;;;;;2.10;1.60;;;;;;;;;;5112980;27;20150;-73
2023/07/21 11:22:13;;;;;;;2.13;1.58;;;;;;;;;;5112936;27;20410;-73
2023/07/21 11:24:39;;;;;;;1.92;1.45;;;;;;;;;;5080364;27;20121;-73
2023/07/21 11:27:06;;;;;;;3.22;1.38;;;;;;;;;;5095383;27;20552;-73
2023/07/21 11:29:35;;;;;;;2.38;1.40;;;;;;;;;;5112812;27;20043;-72
2023/07/21 11:32:03;;;;;;;3.28;1.60;;;;;;;;;;5095731;27;20051;-73
2023/07/21 11:34:29;;;;;;;3.53;1.73;;;;;;;;;;5115323;27;20049;-73
2023/07/21 11:36:58;;;;;;;2.53;1.65;;;;;;;;;;5094084;27;20039;-73
2023/07/21 11:39:24;;;;;;;2.40;2.10;;;;;;;;;;5117390;27;20075;-73
2023/07/21 11:41:54;;;;;;;4.93;1.83;;;;;;;;;;5095862;27;20058;-76
2023/07/21 11:44:26;;;;;;;2.28;1.70;;;;;;;;;;5116268;27;20043;-76
2023/07/21 11:46:54;;;;;;;2.65;1.77;;;;;;;;;;5082157;27;20073;-76
2023/07/21 11:49:22;;;;;;;2.65;1.80;;;;;;;;;;5082639;27;20038;-75
2023/07/21 11:51:50;;;;;;;3.15;1.75;;;;;;;;;;5093801;27;20055;-76
2023/07/21 11:54:24;;;;;;;2.80;2.03;;;;;;;;;;5096530;27;20334;-76
2023/07/21 11:56:51;;;;;;;2.65;1.70;;;;;;;;;;5110463;27;20051;-76
2023/07/21 11:59:17;;;;;;;4.28;2.30;;;;;;;;;;5094173;27;20179;-75
2023/07/21 12:01:44;;;;;;;2.50;1.90;;;;;;;;;;5079615;27;20047;-76
2023/07/21 12:04:10;;;;;;;2.75;2.10;;;;;;;;;;5078043;27;20806;-76
2023/07/21 12:06:36;;;;;;;3.88;2.28;;;;;;;;;;5096134;27;20130;-76
2023/07/21 12:09:05;;;;;;;4.72;2.33;;;22.80;99.90;;;;;;5093503;27;20039;-76
2023/07/21 12:11:32;;;;;;;1.85;1.65;;;;;;;;;;5118206;27;20043;-75
2023/07/21 12:13:58;;;;;;;2.35;1.70;;;;;;;;;;5092934;27;20039;-76
2023/07/21 12:16:24;;;;;;;4.90;1.73;;;;;;;;;;5098023;27;20522;-77
2023/07/21 12:18:50;;;;;;;2.35;1.80;;;;;;;;;;5096427;27;20051;-75
2023/07/21 12:21:17;;;;;;;9.48;1.90;;;;;;;;;;5076260;27;20051;-76
2023/07/21 12:23:44;;;;;;;10.32;2.60;;;;;;;;;;5108281;27;20070;-76
2023/07/21 12:26:10;;;;;;;8.30;2.70;;;;;;;;;;5078723;27;20487;-75
2023/07/21 12:28:36;;;;;;;13.60;3.78;;;;;;;;;;5076963;27;20068;-76
2023/07/21 12:31:02;;;;;;;12.13;3.08;;;;;;;;;;5101488;27;20161;-76
2023/07/21 12:33:28;;;;;;;9.38;3.50;;;;;;;;;;5105700;27;21818;-76
2023/07/21 12:35:55;;;;;;;10.07;3.10;;;;;;;;;;5106926;27;20868;-76
2023/07/21 12:38:21;;;;;;;10.75;2.65;;;;;;;;;;5070752;27;20039;-76
2023/07/21 12:40:47;;;;;;;7.07;2.58;;;;;;;;;;5090762;27;20047;-75
2023/07/21 12:43:13;;;;;;;5.97;2.65;;;;;;;;;;5106058;27;20077;-75
2023/07/21 12:45:40;;;;;;;10.30;2.65;;;;;;;;;;5107726;27;20040;-75
2023/07/21 12:48:07;;;;;;;9.38;2.95;;;;;;;;;;5091236;27;20122;-75
2023/07/21 12:50:33;;;;;;;10.35;3.53;;;;;;;;;;5087519;27;20658;-75
2023/07/21 12:52:59;;;;;;;11.82;3.60;;;;;;;;;;5109077;27;20141;-75
2023/07/21 12:55:26;;;;;;;10.93;2.92;;;;;;;;;;5071189;27;20559;-75
2023/07/21 12:57:52;;;;;;;6.65;2.53;;;;;;;;;;5086501;27;20074;-75
2023/07/21 13:00:18;;;;;;;6.55;2.85;;;;;;;;;;5108772;27;20346;-75
2023/07/21 13:02:45;;;;;;;4.50;2.40;;;;;;;;;;5105260;27;20062;-75
2023/07/21 13:05:13;;;;;;;4.38;2.58;;;;;;;;;;5090080;27;20071;-76
2023/07/21 13:07:39;;;;;;;11.25;2.67;;;;;;;;;;5090298;27;20040;-76
2023/07/21 13:10:07;;;;;;;11.93;3.17;;;;;;;;;;5091152;27;20196;-74
2023/07/21 13:12:33;;;;;;;10.30;4.05;;;;;;;;;;5097795;27;20137;-74
2023/07/21 13:14:59;;;;;;;5.72;3.58;;;;;;;;;;5086836;27;20043;-74
2023/07/21 13:17:25;;;;;;;8.50;3.45;;;;;;;;;;5089589;27;20066;-75
2023/07/21 13:19:51;;;;;;;4.35;3.08;;;;;;;;;;5070330;27;20057;-74
2023/07/21 13:22:17;;;;;;;4.80;2.90;;;;;;;;;;5087516;27;20059;-74
2023/07/21 13:24:43;;;;;;;6.38;3.50;;;;;;;;;;5106683;27;20027;-74
2023/07/21 13:27:11;;;;;;;8.50;3.63;;;;;;;;;;5087028;27;20048;-75
2023/07/21 13:29:39;;;;;;;6.97;3.20;;;;;;;;;;5104694;27;20508;-74
2023/07/21 13:32:05;;;;;;;4.82;3.30;;;;;;;;;;5108243;27;20106;-75
2023/07/21 13:34:32;;;;;;;9.35;3.88;;;;;;;;;;5076036;27;20600;-75
2023/07/21 13:36:58;;;;;;;6.85;4.53;;;;;;;;;;5071252;27;20620;-75
2023/07/21 13:39:24;;;;;;;7.40;3.55;;;;;;;;;;5087395;27;20101;-74
2023/07/21 13:41:50;;;;;;;5.70;2.95;;;;;;;;;;5087649;27;20051;-72
2023/07/21 13:44:17;;;;;;;11.38;3.70;;;;;;;;;;5087476;27;20100;-72
2023/07/21 13:46:44;;;;;;;7.03;3.30;;;;;;;;;;5073934;27;20068;-73
2023/07/21 13:49:10;;;;;;;4.68;2.28;;;;;;;;;;5089708;27;20038;-72
2023/07/21 13:51:36;;;;;;;2.90;2.55;;;;;;;;;;5107760;27;20217;-73
2023/07/21 13:54:02;;;;;;;9.63;2.40;;;;;;;;;;5106957;27;20401;-72
2023/07/21 13:56:28;;;;;;;4.97;2.22;;;;;;;;;;5069005;27;21677;-73
2023/07/21 13:58:54;;;;;;;3.30;2.38;;;;;;;;;;5107015;27;20085;-73
2023/07/21 14:01:20;;;;;;;4.18;2.97;;;;;;;;;;5087463;28;20050;-73
2023/07/21 14:03:46;;;;;;;3.45;2.38;;;;;;;;;;5107457;27;20039;-73
2023/07/21 14:06:14;;;;;;;2.58;2.20;;;;;;;;;;5106617;27;20046;-73
2023/07/21 14:08:40;;;;;;;3.90;2.63;;;;;;;;;;5089136;28;20053;-73
2023/07/21 14:11:06;;;;;;;5.60;2.70;;;;;;;;;;5088108;28;20359;-73
2023/07/21 14:13:32;;;;;;;2.45;2.22;;;;;;;;;;5105618;27;20063;-73
2023/07/21 14:15:58;;;;;;;3.40;2.67;;;;;;;;;;5107452;27;20168;-73
2023/07/21 14:18:24;;;;;;;4.18;2.95;;;;;;;;;;5087631;28;20048;-73
2023/07/21 14:20:51;;;;;;;5.32;2.90;;;;;;;;;;5107489;27;20054;-74
2023/07/21 14:23:17;;;;;;;9.63;3.38;;;;;;;;;;5092383;27;20042;-73
2023/07/21 14:25:43;;;;;;;3.42;2.72;;;;;;;;;;5110148;27;20051;-73
2023/07/21 14:28:09;;;;;;;3.60;3.30;;;;;;;;;;5090056;27;20084;-73
2023/07/21 14:30:35;;;;;;;4.78;3.03;;;;;;;;;;5102376;27;20043;-73
2023/07/21 14:33:02;;;;;;;3.58;3.05;;;;;;;;;;5112089;27;20062;-73
2023/07/21 14:35:28;;;;;;;3.42;2.85;;;;;;;;;;5090752;27;20674;-73
2023/07/21 14:37:54;;;;;;;4.50;3.00;;;;;;;;;;5111696;27;20036;-74
2023/07/21 14:40:21;;;;;;;3.40;2.65;;;;;;;;;;5109636;27;20035;-74